createdAt,value
2019-05-21T00:01:33.485Z,99763.56
2019-05-21T00:04:02.273Z,99758.97
2019-05-21T00:06:30.751Z,99763.30
2019-05-21T00:08:59.546Z,99764.84
2019-05-21T00:11:28.387Z,99760.03
2019-05-21T00:13:56.837Z,99760.03
2019-05-21T00:16:25.307Z,99760.03
2019-05-21T00:18:53.989Z,99759.73
2019-05-21T00:21:22.486Z,99762.73
2019-05-21T00:23:50.988Z,99775.05
2019-05-21T00:26:19.844Z,99775.86
2019-05-21T00:29:24.493Z,99780.96
2019-05-21T00:32:29.157Z,99782.58
2019-05-21T00:35:50.942Z,99781.41
2019-05-21T00:38:55.780Z,99781.13
2019-05-21T00:42:01.286Z,99787.04
2019-05-21T00:44:35.821Z,99787.02
2019-05-21T00:47:05.837Z,99784.27
2019-05-21T00:49:35.274Z,99791.23
2019-05-21T00:52:08.996Z,99794.73
2019-05-21T00:54:34.043Z,99797.69
2019-05-21T00:57:02.584Z,99796.60
2019-05-21T00:59:30.978Z,99797.42
2019-05-21T01:01:59.413Z,99787.06
2019-05-21T01:04:28.043Z,99789.23
2019-05-21T01:06:56.411Z,99795.94
2019-05-21T01:09:24.982Z,99796.99
2019-05-21T01:11:53.659Z,99797.70
2019-05-21T01:14:22.218Z,99792.60
2019-05-21T01:16:51.241Z,99797.41
2019-05-21T01:19:19.776Z,99791.76
2019-05-21T01:21:48.287Z,99799.92
2019-05-21T01:24:16.663Z,99798.81
2019-05-21T01:26:45.374Z,99799.58
2019-05-21T01:29:13.918Z,99798.75
2019-05-21T01:31:42.661Z,99794.19
2019-05-21T01:34:11.702Z,99790.97
2019-05-21T01:36:40.342Z,99790.41
2019-05-21T01:39:08.770Z,99794.69
2019-05-21T01:41:37.221Z,99790.88
2019-05-21T01:44:05.683Z,99791.33
2019-05-21T01:46:34.094Z,99795.31
2019-05-21T01:49:02.460Z,99786.17
2019-05-21T01:51:31.003Z,99781.55
2019-05-21T01:54:00.165Z,99782.08
2019-05-21T01:56:28.617Z,99787.73
2019-05-21T01:58:57.084Z,99786.32
2019-05-21T02:01:25.870Z,99779.06
2019-05-21T02:03:54.407Z,99777.89
2019-05-21T02:06:23.755Z,99775.95
2019-05-21T02:08:52.134Z,99777.01
2019-05-21T02:11:20.927Z,99776.42
2019-05-21T02:13:49.359Z,99781.81
2019-05-21T02:16:18.091Z,99783.62
2019-05-21T02:18:46.622Z,99790.36
2019-05-21T02:21:15.107Z,99792.58
2019-05-21T02:23:43.861Z,99794.95
2019-05-21T02:26:12.341Z,99795.48
2019-05-21T02:28:40.724Z,99797.88
2019-05-21T02:31:09.197Z,99793.55
2019-05-21T02:33:37.620Z,99799.69
2019-05-21T02:36:06.050Z,99804.32
2019-05-21T02:38:34.481Z,99797.00
2019-05-21T02:41:02.891Z,99802.29
2019-05-21T02:43:31.376Z,99808.64
2019-05-21T02:45:59.753Z,99814.78
2019-05-21T02:48:28.269Z,99816.06
2019-05-21T02:50:56.795Z,99810.45
2019-05-21T02:53:25.263Z,99813.34
2019-05-21T02:55:53.720Z,99820.30
2019-05-21T02:58:22.234Z,99817.84
2019-05-21T03:00:52.388Z,99822.62
2019-05-21T03:03:22.508Z,99826.37
2019-05-21T03:05:50.962Z,99831.00
2019-05-21T03:08:19.501Z,99836.38
2019-05-21T03:10:47.882Z,99837.20
2019-05-21T03:13:16.253Z,99840.13
2019-05-21T03:15:44.699Z,99835.47
2019-05-21T03:18:13.165Z,99840.03
2019-05-21T03:20:41.922Z,99836.45
2019-05-21T03:23:10.475Z,99842.13
2019-05-21T03:25:38.939Z,99843.54
2019-05-21T03:28:07.330Z,99847.22
2019-05-21T03:30:35.876Z,99849.16
2019-05-21T03:33:04.399Z,99848.40
2019-05-21T03:35:32.846Z,99843.31
2019-05-21T03:38:01.303Z,99848.20
2019-05-21T03:40:29.726Z,99847.97
2019-05-21T03:42:58.209Z,99850.33
2019-05-21T03:45:26.639Z,99854.11
2019-05-21T03:47:55.100Z,99862.61
2019-05-21T03:50:23.554Z,99870.98
2019-05-21T03:52:52.058Z,99868.28
2019-05-21T03:55:20.440Z,99867.99
2019-05-21T03:57:48.966Z,99866.64
2019-05-21T04:00:17.670Z,99866.05
2019-05-21T04:02:46.133Z,99871.86
2019-05-21T04:05:26.238Z,99872.97
2019-05-21T04:07:54.691Z,99872.16
2019-05-21T04:10:23.135Z,99865.79
2019-05-21T04:13:07.593Z,99858.57
2019-05-21T04:15:42.186Z,99864.58
2019-05-21T04:18:24.725Z,99861.10
2019-05-21T04:20:53.223Z,99868.09
2019-05-21T04:23:21.725Z,99861.95
2019-05-21T04:25:50.108Z,99861.50
2019-05-21T04:28:18.494Z,99863.14
2019-05-21T04:30:47.241Z,99874.95
2019-05-21T04:33:16.028Z,99877.45
2019-05-21T04:35:44.391Z,99869.08
2019-05-21T04:38:12.865Z,99874.30
2019-05-21T04:40:41.240Z,99871.91
2019-05-21T04:43:09.662Z,99872.72
2019-05-21T04:45:38.015Z,99872.16
2019-05-21T04:48:06.402Z,99871.41
2019-05-21T04:50:35.099Z,99874.23
2019-05-21T04:53:03.636Z,99885.03
2019-05-21T04:55:32.214Z,99876.49
2019-05-21T04:58:00.857Z,99877.02
2019-05-21T05:00:29.397Z,99877.41
2019-05-21T05:02:57.876Z,99872.62
2019-05-21T05:05:26.329Z,99876.48
2019-05-21T05:07:54.882Z,99884.69
2019-05-21T05:10:23.675Z,99885.84
2019-05-21T05:12:52.223Z,99890.34
2019-05-21T05:15:20.784Z,99891.81
2019-05-21T05:17:49.302Z,99894.73
2019-05-21T05:20:19.956Z,99893.19
2019-05-21T05:22:48.442Z,99896.33
2019-05-21T05:25:17.452Z,99898.56
2019-05-21T05:27:47.340Z,99892.34
2019-05-21T05:30:16.523Z,99889.22
2019-05-21T05:32:45.249Z,99886.81
2019-05-21T05:35:14.287Z,99889.13
2019-05-21T05:37:46.334Z,99893.47
2019-05-21T05:40:14.114Z,99899.23
2019-05-21T05:42:42.739Z,99897.97
2019-05-21T05:45:12.793Z,99903.48
2019-05-21T05:47:41.234Z,99896.06
2019-05-21T05:50:27.161Z,99902.27
2019-05-21T05:52:55.560Z,99902.36
2019-05-21T05:55:24.416Z,99904.31
2019-05-21T05:57:53.543Z,99905.11
2019-05-21T06:00:23.444Z,99908.36
2019-05-21T06:02:52.433Z,99904.42
2019-05-21T06:05:21.215Z,99909.02
2019-05-21T06:07:59.235Z,99905.91
2019-05-21T06:10:20.393Z,99909.45
2019-05-21T06:12:48.835Z,99908.70
2019-05-21T06:15:17.859Z,99906.44
2019-05-21T06:17:46.239Z,99907.57
2019-05-21T06:20:15.278Z,99910.64
2019-05-21T06:22:43.714Z,99905.05
2019-05-21T06:25:12.543Z,99902.43
2019-05-21T06:27:41.341Z,99903.71
2019-05-21T06:30:10.950Z,99898.84
2019-05-21T06:32:39.678Z,99901.63
2019-05-21T06:35:08.273Z,99907.91
2019-05-21T06:37:37.011Z,99910.28
2019-05-21T06:40:06.620Z,99906.25
2019-05-21T06:42:35.028Z,99905.40
2019-05-21T06:45:04.832Z,99915.59
2019-05-21T06:47:33.240Z,99914.70
2019-05-21T06:50:01.647Z,99918.22
2019-05-21T06:52:30.088Z,99919.30
2019-05-21T06:54:58.483Z,99923.08
2019-05-21T06:57:37.488Z,99928.05
2019-05-21T07:00:08.537Z,99930.16
2019-05-21T07:02:37.130Z,99932.06
2019-05-21T07:05:06.332Z,99928.88
2019-05-21T07:07:34.936Z,99933.76
2019-05-21T07:10:05.185Z,99934.34
2019-05-21T07:12:33.621Z,99938.00
2019-05-21T07:15:02.458Z,99926.89
2019-05-21T07:17:31.101Z,99925.23
2019-05-21T07:20:00.263Z,99925.59
2019-05-21T07:22:28.962Z,99920.48
2019-05-21T07:24:57.407Z,99920.84
2019-05-21T07:27:25.944Z,99929.60
2019-05-21T07:29:54.605Z,99938.16
2019-05-21T07:32:23.535Z,99938.63
2019-05-21T07:34:52.154Z,99935.32
2019-05-21T07:37:20.649Z,99942.45
2019-05-21T07:39:49.119Z,99950.05
2019-05-21T07:42:17.557Z,99944.52
2019-05-21T07:44:46.081Z,99946.09
2019-05-21T07:47:14.638Z,99947.09
2019-05-21T07:49:43.013Z,99942.93
2019-05-21T07:52:11.401Z,99947.14
2019-05-21T07:54:39.992Z,99946.90
2019-05-21T07:57:08.359Z,99946.84
2019-05-21T07:59:36.760Z,99948.64
2019-05-21T08:02:05.237Z,99951.52
2019-05-21T08:04:33.975Z,99950.98
2019-05-21T08:07:03.060Z,99949.97
2019-05-21T08:09:31.456Z,99957.23
2019-05-21T08:11:59.975Z,99956.24
2019-05-21T08:14:28.348Z,99962.21
2019-05-21T08:16:56.970Z,99957.81
2019-05-21T08:19:25.454Z,99953.84
2019-05-21T08:21:54.264Z,99962.53
2019-05-21T08:24:22.766Z,99966.55
2019-05-21T08:26:51.571Z,99968.80
2019-05-21T08:29:19.934Z,99971.41
2019-05-21T08:31:48.336Z,99971.52
2019-05-21T08:34:17.190Z,99973.56
2019-05-21T08:36:45.571Z,99971.39
2019-05-21T08:39:27.829Z,99977.03
2019-05-21T08:41:44.475Z,99983.66
2019-05-21T08:44:13.268Z,99979.79
2019-05-21T08:46:42.078Z,99976.24
2019-05-21T08:49:10.511Z,99975.98
2019-05-21T08:51:39.126Z,99977.41
2019-05-21T08:54:07.571Z,99979.11
2019-05-21T08:56:36.005Z,99976.19
2019-05-21T08:59:04.483Z,99973.99
2019-05-21T09:01:33.361Z,99976.51
2019-05-21T09:04:01.859Z,99979.16
2019-05-21T09:06:30.435Z,99981.55
2019-05-21T09:08:58.896Z,99982.49
2019-05-21T09:11:27.363Z,99988.50
2019-05-21T09:13:55.735Z,99986.19
2019-05-21T09:16:24.177Z,99988.04
2019-05-21T09:18:52.637Z,99989.28
2019-05-21T09:21:21.632Z,99988.55
2019-05-21T09:23:50.072Z,99985.64
2019-05-21T09:26:18.572Z,99992.20
2019-05-21T09:28:47.067Z,99992.87
2019-05-21T09:31:15.449Z,99998.78
2019-05-21T09:33:43.871Z,100002.46
2019-05-21T09:36:12.625Z,100008.84
2019-05-21T09:38:41.153Z,100009.79
2019-05-21T09:41:09.998Z,100003.00
2019-05-21T09:43:38.789Z,100005.72
2019-05-21T09:46:07.579Z,100007.23
2019-05-21T09:48:36.412Z,100008.66
2019-05-21T09:51:04.993Z,100008.68
2019-05-21T09:53:33.453Z,100007.27
2019-05-21T09:56:03.445Z,100010.05
2019-05-21T09:58:33.520Z,100002.44
2019-05-21T10:01:18.323Z,100003.73
2019-05-21T10:03:48.419Z,99999.53
2019-05-21T10:06:16.874Z,99998.80
2019-05-21T10:08:45.245Z,99998.47
2019-05-21T10:11:13.686Z,99999.56
2019-05-21T10:13:42.507Z,100011.41
2019-05-21T10:16:10.950Z,100007.29
2019-05-21T10:18:39.500Z,100003.73
2019-05-21T10:21:08.034Z,100004.08
2019-05-21T10:23:36.470Z,100007.08
2019-05-21T10:26:05.039Z,100015.77
2019-05-21T10:28:33.559Z,100008.14
2019-05-21T10:31:02.049Z,100007.30
2019-05-21T10:33:30.778Z,100013.31
2019-05-21T10:35:59.400Z,100008.41
2019-05-21T10:38:28.250Z,100014.41
2019-05-21T10:40:56.783Z,100017.93
2019-05-21T10:43:25.216Z,100021.41
2019-05-21T10:45:53.698Z,100020.48
2019-05-21T10:48:22.112Z,100019.94
2019-05-21T10:50:50.882Z,100023.38
2019-05-21T10:53:19.754Z,100025.29
2019-05-21T10:55:48.232Z,100021.48
2019-05-21T10:58:16.721Z,100022.98
2019-05-21T11:00:47.171Z,100025.94
2019-05-21T11:03:29.450Z,100028.47
2019-05-21T11:06:09.487Z,100029.41
2019-05-21T11:08:28.968Z,100032.37
2019-05-21T11:10:57.616Z,100035.97
2019-05-21T11:13:26.127Z,100032.43
2019-05-21T11:15:54.631Z,100033.22
2019-05-21T11:18:23.622Z,100029.50
2019-05-21T11:20:52.173Z,100032.81
2019-05-21T11:23:20.649Z,100027.23
2019-05-21T11:25:49.271Z,100031.38
2019-05-21T11:28:17.722Z,100029.41
2019-05-21T11:30:46.183Z,100032.12
2019-05-21T11:33:14.667Z,100030.97
2019-05-21T11:35:43.143Z,100027.15
2019-05-21T11:38:11.641Z,100025.56
2019-05-21T11:40:40.201Z,100022.25
2019-05-21T11:43:08.781Z,100026.87
2019-05-21T11:45:37.219Z,100025.84
2019-05-21T11:48:05.699Z,100029.27
2019-05-21T11:50:34.401Z,100023.09
2019-05-21T11:53:02.865Z,100029.43
2019-05-21T11:55:31.309Z,100030.98
2019-05-21T11:58:01.427Z,100030.53
2019-05-21T12:00:30.283Z,100034.48
2019-05-21T12:02:58.787Z,100034.89
2019-05-21T12:05:27.451Z,100039.97
2019-05-21T12:07:56.237Z,100035.45
2019-05-21T12:10:24.934Z,100040.86
2019-05-21T12:12:53.414Z,100034.27
2019-05-21T12:15:21.995Z,100031.29
2019-05-21T12:17:50.784Z,100032.98
2019-05-21T12:20:35.206Z,100030.90
2019-05-21T12:22:49.797Z,100036.15
2019-05-21T12:25:18.194Z,100029.33
2019-05-21T12:27:46.582Z,100033.87
2019-05-21T12:30:14.984Z,100031.27
2019-05-21T12:32:43.719Z,100033.52
2019-05-21T12:35:13.836Z,100030.98
2019-05-21T12:37:42.211Z,100034.77
2019-05-21T12:40:11.370Z,100035.94
2019-05-21T12:42:39.895Z,100028.23
2019-05-21T12:45:08.642Z,100030.59
2019-05-21T12:47:37.080Z,100028.84
2019-05-21T12:50:06.528Z,100030.80
2019-05-21T12:52:34.961Z,100028.33
2019-05-21T12:55:05.280Z,100032.25
2019-05-21T12:57:33.787Z,100037.80
2019-05-21T13:00:02.351Z,100037.63
2019-05-21T13:02:30.812Z,100033.27
2019-05-21T13:04:59.364Z,100037.09
2019-05-21T13:07:27.901Z,100037.42
2019-05-21T13:09:56.344Z,100046.38
2019-05-21T13:12:24.889Z,100047.22
2019-05-21T13:14:53.438Z,100043.55
2019-05-21T13:17:21.868Z,100049.02
2019-05-21T13:19:50.448Z,100047.16
2019-05-21T13:22:18.827Z,100039.55
2019-05-21T13:24:47.696Z,100044.19
2019-05-21T13:27:16.313Z,100039.12
2019-05-21T13:29:44.897Z,100034.72
2019-05-21T13:32:13.370Z,100038.09
2019-05-21T13:34:43.615Z,100043.61
2019-05-21T13:37:12.169Z,100036.34
2019-05-21T13:39:49.458Z,100035.44
2019-05-21T13:42:10.904Z,100031.78
2019-05-21T13:44:39.252Z,100031.37
2019-05-21T13:47:07.770Z,100027.60
2019-05-21T13:49:36.601Z,100029.52
2019-05-21T13:52:05.159Z,100028.08
2019-05-21T13:54:33.605Z,100031.38
2019-05-21T13:57:02.140Z,100026.90
2019-05-21T13:59:30.533Z,100036.90
2019-05-21T14:01:59.269Z,100029.33
2019-05-21T14:04:27.866Z,100034.13
2019-05-21T14:06:56.746Z,100032.11
2019-05-21T14:09:25.363Z,100027.73
2019-05-21T14:11:54.568Z,100027.67
2019-05-21T14:14:23.035Z,100031.02
2019-05-21T14:16:51.440Z,100026.27
2019-05-21T14:19:20.170Z,100034.84
2019-05-21T14:21:49.135Z,100028.28
2019-05-21T14:24:17.708Z,100028.02
2019-05-21T14:26:46.386Z,100030.80
2019-05-21T14:29:15.090Z,100026.63
2019-05-21T14:31:43.756Z,100016.45
2019-05-21T14:34:12.277Z,100023.14
2019-05-21T14:36:40.978Z,100029.03
2019-05-21T14:39:13.851Z,100031.42
2019-05-21T14:41:42.728Z,100033.98
2019-05-21T14:44:11.319Z,100036.58
2019-05-21T14:46:39.931Z,100039.73
2019-05-21T14:49:08.680Z,100036.89
2019-05-21T14:51:37.115Z,100033.02
2019-05-21T14:54:06.161Z,100037.52
2019-05-21T14:56:34.677Z,100039.81
2019-05-21T14:59:03.179Z,100039.35
2019-05-21T15:01:31.621Z,100048.80
2019-05-21T15:04:00.284Z,100049.41
2019-05-21T15:06:28.843Z,100049.21
2019-05-21T15:08:57.292Z,100052.52
2019-05-21T15:11:25.656Z,100048.19
2019-05-21T15:13:54.432Z,100049.58
2019-05-21T15:16:22.941Z,100048.52
2019-05-21T15:18:51.510Z,100043.91
2019-05-21T15:21:21.522Z,100049.41
2019-05-21T15:23:50.044Z,100049.67
2019-05-21T15:26:18.605Z,100049.40
2019-05-21T15:28:47.056Z,100043.70
2019-05-21T15:31:15.495Z,100052.98
2019-05-21T15:33:43.876Z,100047.27
2019-05-21T15:36:12.438Z,100046.97
2019-05-21T15:38:50.305Z,100051.06
2019-05-21T15:41:12.783Z,100057.02
2019-05-21T15:43:41.843Z,100052.41
2019-05-21T15:46:10.340Z,100050.52
2019-05-21T15:48:38.773Z,100051.61
2019-05-21T15:51:07.237Z,100053.80
2019-05-21T15:53:35.621Z,100051.31
2019-05-21T15:56:04.360Z,100052.42
2019-05-21T15:58:32.813Z,100055.95
2019-05-21T16:01:01.283Z,100058.67
2019-05-21T16:03:29.688Z,100056.50
2019-05-21T16:05:58.499Z,100055.69
2019-05-21T16:08:27.294Z,100053.23
2019-05-21T16:10:56.400Z,100059.77
2019-05-21T16:13:25.016Z,100057.86
2019-05-21T16:15:53.488Z,100055.69
2019-05-21T16:18:22.136Z,100055.43
2019-05-21T16:20:50.682Z,100059.23
2019-05-21T16:23:19.136Z,100059.25
2019-05-21T16:25:49.768Z,100061.14
2019-05-21T16:28:18.355Z,100064.95
2019-05-21T16:30:46.873Z,100064.13
2019-05-21T16:33:16.143Z,100068.77
2019-05-21T16:35:44.665Z,100067.38
2019-05-21T16:38:13.431Z,100067.66
2019-05-21T16:40:42.370Z,100077.45
2019-05-21T16:43:10.746Z,100069.28
2019-05-21T16:45:39.349Z,100073.66
2019-05-21T16:48:08.191Z,100077.71
2019-05-21T16:50:36.693Z,100081.52
2019-05-21T16:53:05.160Z,100086.67
2019-05-21T16:55:35.163Z,100079.90
2019-05-21T16:58:03.632Z,100077.99
2019-05-21T17:00:32.263Z,100082.59
2019-05-21T17:03:00.705Z,100079.34
2019-05-21T17:05:29.649Z,100085.04
2019-05-21T17:08:00.193Z,100082.33
2019-05-21T17:10:29.449Z,100081.22
2019-05-21T17:12:58.038Z,100088.81
2019-05-21T17:15:26.764Z,100087.20
2019-05-21T17:17:55.199Z,100094.00
2019-05-21T17:20:23.740Z,100101.34
2019-05-21T17:22:52.257Z,100100.54
2019-05-21T17:25:20.795Z,100100.54
2019-05-21T17:27:49.421Z,100108.41
2019-05-21T17:30:18.734Z,100106.50
2019-05-21T17:32:47.215Z,100107.86
2019-05-21T17:35:15.783Z,100113.84
2019-05-21T17:37:44.333Z,100113.27
2019-05-21T17:40:14.544Z,100117.38
2019-05-21T17:42:43.450Z,100114.94
2019-05-21T17:45:15.531Z,100114.91
2019-05-21T17:47:44.167Z,100114.08
2019-05-21T17:50:13.032Z,100114.30
2019-05-21T17:52:41.441Z,100116.46
2019-05-21T17:55:09.998Z,100116.73
2019-05-21T17:57:38.576Z,100114.31
2019-05-21T18:00:09.265Z,100117.02
2019-05-21T18:02:37.916Z,100115.36
2019-05-21T18:05:08.797Z,100122.42
2019-05-21T18:07:37.992Z,100121.84
2019-05-21T18:10:10.374Z,100128.10
2019-05-21T18:12:39.559Z,100132.13
2019-05-21T18:15:11.802Z,100138.92
2019-05-21T18:17:42.272Z,100140.02
2019-05-21T18:20:12.163Z,100150.84
2019-05-21T18:22:42.106Z,100142.39
2019-05-21T18:25:12.321Z,100154.87
2019-05-21T18:27:41.094Z,100152.41
2019-05-21T18:30:10.110Z,100155.39
2019-05-21T18:32:38.631Z,100160.23
2019-05-21T18:35:08.787Z,100154.80
2019-05-21T18:37:39.048Z,100155.58
2019-05-21T18:40:09.564Z,100155.58
2019-05-21T18:42:38.348Z,100165.59
2019-05-21T18:45:07.886Z,100169.66
2019-05-21T18:47:36.747Z,100176.42
2019-05-21T18:50:09.743Z,100176.61
2019-05-21T18:52:38.373Z,100184.45
2019-05-21T18:55:07.517Z,100185.02
2019-05-21T18:57:36.082Z,100189.56
2019-05-21T19:00:09.229Z,100196.59
2019-05-21T19:02:37.832Z,100198.48
2019-05-21T19:05:07.154Z,100205.52
2019-05-21T19:07:35.672Z,100207.41
2019-05-21T19:10:06.114Z,100205.77
2019-05-21T19:12:37.930Z,100206.59
2019-05-21T19:15:09.349Z,100210.63
2019-05-21T19:17:38.205Z,100212.78
2019-05-21T19:20:08.425Z,100215.70
2019-05-21T19:22:36.931Z,100213.78
2019-05-21T19:25:07.069Z,100208.58
2019-05-21T19:27:35.811Z,100213.75
2019-05-21T19:30:08.195Z,100212.36
2019-05-21T19:32:36.616Z,100216.95
2019-05-21T19:35:08.399Z,100228.05
2019-05-21T19:37:36.918Z,100239.19
2019-05-21T19:40:07.445Z,100238.90
2019-05-21T19:42:35.896Z,100245.67
2019-05-21T19:45:06.134Z,100254.34
2019-05-21T19:47:34.497Z,100253.73
2019-05-21T19:50:03.227Z,100259.97
2019-05-21T19:52:32.006Z,100261.83
2019-05-21T19:55:00.536Z,100273.48
2019-05-21T19:57:30.740Z,100276.20
2019-05-21T19:59:59.223Z,100278.62
2019-05-21T20:02:29.304Z,100283.47
2019-05-21T20:04:59.456Z,100281.54
2019-05-21T20:07:27.929Z,100284.53
2019-05-21T20:09:56.754Z,100287.98
2019-05-21T20:12:26.624Z,100281.70
2019-05-21T20:14:55.517Z,100290.85
2019-05-21T20:17:25.784Z,100297.63
2019-05-21T20:19:54.372Z,100302.46
2019-05-21T20:22:26.118Z,100307.80
2019-05-21T20:24:53.015Z,100311.09
2019-05-21T20:27:21.917Z,100310.80
2019-05-21T20:29:50.915Z,100323.42
2019-05-21T20:32:21.061Z,100324.97
2019-05-21T20:34:51.059Z,100319.80
2019-05-21T20:37:21.454Z,100317.08
2019-05-21T20:39:50.055Z,100319.80
2019-05-21T20:42:20.951Z,100324.73
2019-05-21T20:44:49.688Z,100326.58
2019-05-21T20:47:18.972Z,100334.93
2019-05-21T20:49:49.000Z,100340.58
2019-05-21T20:52:18.913Z,100335.65
2019-05-21T20:54:47.921Z,100334.47
2019-05-21T20:57:18.217Z,100339.94
2019-05-21T20:59:46.724Z,100343.71
2019-05-21T21:02:16.123Z,100340.13
2019-05-21T21:04:45.239Z,100331.23
2019-05-21T21:07:13.783Z,100321.76
2019-05-21T21:09:42.736Z,100329.55
2019-05-21T21:12:11.772Z,100336.84
2019-05-21T21:14:41.022Z,100332.53
2019-05-21T21:17:11.065Z,100327.80
2019-05-21T21:19:40.864Z,100328.44
2019-05-21T21:22:09.347Z,100326.78
2019-05-21T21:24:38.860Z,100330.30
2019-05-21T21:27:08.136Z,100325.33
2019-05-21T21:29:36.630Z,100340.67
2019-05-21T21:32:05.142Z,100337.37
2019-05-21T21:34:33.807Z,100335.14
2019-05-21T21:37:04.321Z,100332.13
2019-05-21T21:39:33.263Z,100334.83
2019-05-21T21:42:03.022Z,100341.02
2019-05-21T21:44:34.450Z,100339.74
2019-05-21T21:47:03.485Z,100346.98
2019-05-21T21:49:37.595Z,100350.14
2019-05-21T21:52:08.005Z,100343.91
2019-05-21T21:54:38.179Z,100339.30
2019-05-21T21:57:06.739Z,100343.06
2019-05-21T21:59:35.572Z,100336.46
2019-05-21T22:02:10.477Z,100339.59
2019-05-21T22:04:39.665Z,100346.05
2019-05-21T22:07:08.837Z,100343.56
2019-05-21T22:09:38.754Z,100347.33
2019-05-21T22:12:09.690Z,100357.09
2019-05-21T22:14:50.469Z,100355.20
2019-05-21T22:17:10.822Z,100356.20
2019-05-21T22:19:39.749Z,100366.26
2019-05-21T22:22:10.110Z,100364.61
2019-05-21T22:24:38.971Z,100365.41
2019-05-21T22:27:07.567Z,100369.47
2019-05-21T22:29:37.257Z,100364.06
2019-05-21T22:32:05.743Z,100363.94
2019-05-21T22:34:34.462Z,100371.00
2019-05-21T22:37:03.066Z,100371.29
2019-05-21T22:39:32.448Z,100370.23
2019-05-21T22:42:01.434Z,100363.77
2019-05-21T22:44:30.759Z,100366.20
2019-05-21T22:46:59.456Z,100362.94
2019-05-21T22:49:33.617Z,100358.06
2019-05-21T22:51:58.427Z,100355.66
2019-05-21T22:54:26.987Z,100356.66
2019-05-21T22:56:55.418Z,100351.92
2019-05-21T22:59:23.948Z,100351.99
2019-05-21T23:01:54.343Z,100363.86
2019-05-21T23:04:22.715Z,100360.09
2019-05-21T23:06:51.341Z,100358.75
2019-05-21T23:09:19.770Z,100361.54
2019-05-21T23:11:48.531Z,100360.52
2019-05-21T23:14:17.204Z,100365.48
2019-05-21T23:16:45.637Z,100367.16
2019-05-21T23:19:16.114Z,100368.58
2019-05-21T23:21:46.248Z,100370.48
2019-05-21T23:24:17.111Z,100361.45
2019-05-21T23:26:46.926Z,100361.09
2019-05-21T23:29:16.135Z,100359.75
2019-05-21T23:31:44.745Z,100364.37
2019-05-21T23:34:14.139Z,100361.87
2019-05-21T23:36:43.258Z,100360.45
2019-05-21T23:39:13.497Z,100360.16
2019-05-21T23:41:42.378Z,100358.41
2019-05-21T23:44:10.733Z,100360.08
2019-05-21T23:46:40.004Z,100352.20
2019-05-21T23:49:08.532Z,100348.36
2019-05-21T23:51:36.929Z,100357.36
2019-05-21T23:54:05.951Z,100352.19
2019-05-21T23:56:34.473Z,100357.27
2019-05-21T23:59:03.686Z,100357.96
